Shrewsbury Township, New Jersey
Current Conditions -  °F | °C
As of 3:55 AM on Wednesday 22 Oct 2014 (Local Time) from KBLM Reporting Station
Thunderstorm Thunderstorm  
Wind Chill: 57°   Ceiling: 6500
Heat Index: 57°   Visibility: 10mi
Dew Point: 48°   Wind: 5mph
Humidity: 72%   Direction: 10°N
Pressure: 29.84"   Gusts: NA
Location:  40.2996°N, 74.074°W
Report Text: KBLM 220755Z AUTO 01004KT 10SM VCTS SCT016 BKN065 OVC090 14/09 A2984 RMK AO1 LTG DSNT NE TSB12E27B34E51B52 P0001
Loading
Personal Weather Stations






























Interactive Weather Map
Tropical Storm Tracking
New forecast layout! Learn more

10-Day Weather Forecast

Advertisements
Track Severe Weather on mobile